Santa Barbara, CA (93110)

7:12 PM PDT on August 30, 2015 (GMT -0700)
Encore and Modoc | | Change Station
CLOSE
Current Station
Personal Weather Station
Location: Santa Barbara, CA
Elevation: 131 ft
Nearby Weather Stations
Active Advisory: Wind Advisory

Elev 131 ft 34.44 °N, 119.76 °W | Updated 7 minutes ago

Clear
Clear
79.5 °F
Feels Like 81 °F
N
1.1
Wind Variable Wind from SSE

Today
High -- | Low -- °F
--% Chance of Precip.
Yesterday
High -- | Low -- °F
Precip. -- in
6:30 AM 7:28 PM
Full, 97% visible
Pressure 29.77 in
Visibility 10.0 miles
Clouds Mostly Cloudy 20000 ft
Heat Index 81 °F
Dew Point 65 °F
Humidity 61%
Rainfall 0.00 in
Snow Depth Not available.
UV 0 out of 12
Pollen 8.30 out of 12
Air Quality Not available.
Flu Activity Not available.
METAR KSBA 310153Z 17007KT 10SM BKN200 24/18 A2977 RMK AO2 SLP080 T02440178
Pressure 29.77 in
Visibility 10.0 miles
Clouds Mostly Cloudy 20000 ft
Heat Index 81 °F
Dew Point 65 °F
Humidity 61%
Rainfall 0.00 in
Snow Depth Not available.
UV 0 out of 12
Pollen 8.30 out of 12
Air Quality Not available.
Flu Activity Not available.
METAR KSBA 310153Z 17007KT 10SM BKN200 24/18 A2977 RMK AO2 SLP080 T02440178

10-Day Weather Forecast

×

Almanac

Astronomy

Aug. 30, 2015 Rise Set
Actual Time
Civil Twilight
Nautical Twilight
Astronomical Twilight
Moon
Length of Visible Light
Length of Day
Tomorrow will be .
, % of the Moon is Illuminated

Today's Extremes

State Highs State Lows

Community

WunderPhotos

Upload Photos

1,851,157 photos uploaded!

WunderBlogs® & News

Nearby

Air Quality

  Air Quality AQ Index Pollutant
Not available.

Snow Depth

Station Depth Elevation

Earthquake Activity

City Distance Mag. Time & Date
Minimum magnitude displayed is 2.5.

Coastal Water Temperatures

Place Temperature

Stations

Nearby Weather Stations

Station Location Temp. Windchill Dew Point Humidity Wind Precip. Elev Updated Type
                   
Wind Advisory
Statement as of 4:41 PM PDT on August 30, 2015

... A Wind Advisory remains in effect from 5 PM this evening
through 4 am PDT Monday...

* timing... winds will strengthen late this afternoon through early
evening. The winds are expected to diminish by early Monday
morning.

* Winds... northwest to north 20 to 30 mph with gusts between 35
and 45 mph... strongest through passes and canyons.

* Impacts... major roadways that could be affected include
highways 101... 154... and 192... especially near Gaviota... San
Marcos Pass... and below the hills of Montecito.

Precautionary/preparedness actions...

When driving... use extra caution. Be prepared for sudden gusty
cross winds.



Kaplan/sukup